createdAt,value
2019-05-25T00:00:23.471Z,17.1
2019-05-25T00:01:23.691Z,17.1
2019-05-25T00:02:23.519Z,17.0
2019-05-25T00:03:23.562Z,16.9
2019-05-25T00:04:33.607Z,16.9
2019-05-25T00:05:23.576Z,16.8
2019-05-25T00:06:23.589Z,16.8
2019-05-25T00:07:23.591Z,16.7
2019-05-25T00:08:23.661Z,16.6
2019-05-25T00:09:33.665Z,16.6
2019-05-25T00:10:33.694Z,16.7
2019-05-25T00:11:23.708Z,16.5
2019-05-25T00:12:33.733Z,16.5
2019-05-25T00:13:23.790Z,16.5
2019-05-25T00:14:33.798Z,16.6
2019-05-25T00:15:23.814Z,16.6
2019-05-25T00:16:23.846Z,16.6
2019-05-25T00:17:23.951Z,16.6
2019-05-25T00:18:24.006Z,16.5
2019-05-25T00:19:34.029Z,16.7
2019-05-25T00:20:24.033Z,16.6
2019-05-25T00:21:24.042Z,16.7
2019-05-25T00:22:24.063Z,16.6
2019-05-25T00:23:24.069Z,16.6
2019-05-25T00:24:34.091Z,16.6
2019-05-25T00:25:24.170Z,16.6
2019-05-25T00:26:24.338Z,16.7
2019-05-25T00:27:24.219Z,16.5
2019-05-25T00:28:24.230Z,16.5
2019-05-25T00:29:34.263Z,16.4
2019-05-25T00:30:24.326Z,16.5
2019-05-25T00:31:24.371Z,16.4
2019-05-25T00:32:24.324Z,16.5
2019-05-25T00:33:24.363Z,16.4
2019-05-25T00:34:34.474Z,16.4
2019-05-25T00:35:24.485Z,16.4
2019-05-25T00:36:24.519Z,16.2
2019-05-25T00:37:24.511Z,16.3
2019-05-25T00:38:24.529Z,16.3
2019-05-25T00:39:34.537Z,16.3
2019-05-25T00:40:24.555Z,16.3
2019-05-25T00:41:24.573Z,16.2
2019-05-25T00:42:24.574Z,16.2
2019-05-25T00:43:24.613Z,16.2
2019-05-25T00:44:34.616Z,16.2
2019-05-25T00:45:24.635Z,16.3
2019-05-25T00:46:24.647Z,16.4
2019-05-25T00:47:24.665Z,16.4
2019-05-25T00:48:24.808Z,16.5
2019-05-25T00:49:34.692Z,16.6
2019-05-25T00:50:24.774Z,16.6
2019-05-25T00:51:24.831Z,16.6
2019-05-25T00:52:24.830Z,16.6
2019-05-25T00:53:24.854Z,16.8
2019-05-25T00:54:34.917Z,16.7
2019-05-25T00:55:24.903Z,16.8
2019-05-25T00:56:24.929Z,16.8
2019-05-25T00:57:24.953Z,16.8
2019-05-25T00:58:24.989Z,16.7
2019-05-25T00:59:35.133Z,16.8
2019-05-25T01:00:24.996Z,16.8
2019-05-25T01:01:25.007Z,16.8
2019-05-25T01:03:05.026Z,16.7
2019-05-25T01:08:55.172Z,16.8
2019-05-25T01:09:55.274Z,16.8
2019-05-25T01:10:55.282Z,16.8
2019-05-25T01:11:55.302Z,16.7
2019-05-25T01:12:55.390Z,16.9
2019-05-25T01:14:05.481Z,16.8
2019-05-25T01:14:55.689Z,16.8
2019-05-25T01:18:55.784Z,16.9
2019-05-25T01:19:55.867Z,16.9
2019-05-25T01:21:46.946Z,16.9
2019-05-25T01:23:55.942Z,17.0
2019-05-25T01:24:56.084Z,16.9
2019-05-25T01:25:36.089Z,16.9
2019-05-25T01:26:36.087Z,16.9
2019-05-25T01:27:36.099Z,16.9
2019-05-25T01:33:56.361Z,16.7
2019-05-25T01:35:36.356Z,16.7
2019-05-25T01:36:36.422Z,16.8
2019-05-25T01:37:36.464Z,16.7
2019-05-25T01:43:56.998Z,16.6
2019-05-25T01:44:56.607Z,16.5
2019-05-25T01:45:36.613Z,16.5
2019-05-25T01:46:36.618Z,16.5
2019-05-25T01:47:36.658Z,16.4
2019-05-25T01:53:56.765Z,16.4
2019-05-25T01:54:59.697Z,16.3
2019-05-25T01:58:56.876Z,16.4
2019-05-25T01:59:56.896Z,16.3
2019-05-25T02:00:36.904Z,16.2
2019-05-25T02:01:36.919Z,16.4
2019-05-25T02:02:36.936Z,16.3
2019-05-25T02:08:57.203Z,16.1
2019-05-25T02:10:37.195Z,16.2
2019-05-25T02:11:37.202Z,16.1
2019-05-25T02:12:37.222Z,16.2
2019-05-25T02:18:57.357Z,16.0
2019-05-25T02:19:57.360Z,16.1
2019-05-25T02:23:57.447Z,16.1
2019-05-25T02:25:37.492Z,16.2
2019-05-25T02:26:37.539Z,16.3
2019-05-25T02:27:37.538Z,16.4
2019-05-25T02:28:37.565Z,16.3
2019-05-25T02:29:37.576Z,16.3
2019-05-25T02:30:37.592Z,16.3
2019-05-25T02:31:37.600Z,16.3
2019-05-25T02:32:37.618Z,16.3
2019-05-25T02:38:57.970Z,16.5
2019-05-25T02:39:57.846Z,16.5
2019-05-25T02:43:57.949Z,16.6
2019-05-25T02:44:58.051Z,16.6
2019-05-25T02:48:58.068Z,16.7
2019-05-25T02:49:59.569Z,16.8
2019-05-25T02:50:38.122Z,16.7
2019-05-25T02:51:38.178Z,16.7
2019-05-25T02:52:38.269Z,16.8
2019-05-25T02:58:58.445Z,16.6
2019-05-25T02:59:58.463Z,16.7
2019-05-25T03:00:38.596Z,16.6
2019-05-25T03:01:38.481Z,16.5
2019-05-25T03:02:38.494Z,16.6
2019-05-25T03:08:58.644Z,16.3
2019-05-25T03:09:58.666Z,16.2
2019-05-25T03:10:38.671Z,16.2
2019-05-25T03:11:39.154Z,16.2
2019-05-25T03:12:38.733Z,16.3
2019-05-25T03:19:08.894Z,16.1
2019-05-25T03:19:58.904Z,16.0
2019-05-25T03:20:38.934Z,16.0
2019-05-25T03:21:59.060Z,16.0
2019-05-25T03:27:09.053Z,15.8
2019-05-25T03:27:59.043Z,15.8
2019-05-25T03:28:39.057Z,15.8
2019-05-25T03:29:39.112Z,15.8
2019-05-25T03:30:39.115Z,15.8
2019-05-25T03:31:59.148Z,15.8
2019-05-25T03:37:09.304Z,15.7
2019-05-25T03:37:59.315Z,15.7
2019-05-25T03:38:39.361Z,15.8
2019-05-25T03:39:39.378Z,15.8
2019-05-25T03:40:39.400Z,15.8
2019-05-25T03:41:59.407Z,15.9
2019-05-25T03:47:09.486Z,15.8
2019-05-25T03:47:59.570Z,15.7
2019-05-25T03:48:39.551Z,15.8
2019-05-25T03:49:39.563Z,15.9
2019-05-25T03:50:39.567Z,15.9
2019-05-25T03:51:59.642Z,15.8
2019-05-25T03:54:39.667Z,16.0
2019-05-25T03:55:40.829Z,16.0
2019-05-25T03:56:59.756Z,15.9
2019-05-25T04:02:09.846Z,16.1
2019-05-25T04:02:59.880Z,16.1
2019-05-25T04:03:39.899Z,16.0
2019-05-25T04:04:39.935Z,16.1
2019-05-25T04:05:39.956Z,16.2
2019-05-25T04:07:01.157Z,16.1
2019-05-25T04:12:10.240Z,16.2
2019-05-25T04:13:00.272Z,16.2
2019-05-25T04:13:40.289Z,16.2
2019-05-25T04:14:30.346Z,16.2
2019-05-25T04:15:30.444Z,16.2
2019-05-25T04:17:41.577Z,16.3
2019-05-25T04:18:30.488Z,16.3
2019-05-25T04:19:30.495Z,16.3
2019-05-25T04:20:30.513Z,16.3
2019-05-25T04:22:30.541Z,16.3
2019-05-25T04:23:30.562Z,16.3
2019-05-25T04:24:30.590Z,16.3
2019-05-25T04:25:30.628Z,16.3
2019-05-25T04:27:40.686Z,16.3
2019-05-25T04:28:30.799Z,16.1
2019-05-25T04:29:30.686Z,16.3
2019-05-25T04:30:30.734Z,16.3
2019-05-25T04:32:40.856Z,16.2
2019-05-25T04:33:30.862Z,16.1
2019-05-25T04:34:30.831Z,16.1
2019-05-25T04:35:30.896Z,16.1
2019-05-25T04:36:40.869Z,16.1
2019-05-25T04:41:31.020Z,16.0
2019-05-25T04:46:31.111Z,15.9
2019-05-25T04:51:31.334Z,15.9
2019-05-25T04:52:21.362Z,15.9
2019-05-25T04:53:21.371Z,15.9
2019-05-25T04:54:21.403Z,15.9
2019-05-25T04:55:21.574Z,15.9
2019-05-25T04:56:39.227Z,16.0
2019-05-25T04:57:21.528Z,16.0
2019-05-25T04:58:21.551Z,15.9
2019-05-25T04:59:21.564Z,16.0
2019-05-25T05:00:21.574Z,16.1
2019-05-25T05:01:31.598Z,16.0
2019-05-25T05:02:21.612Z,15.9
2019-05-25T05:03:21.626Z,16.0
2019-05-25T05:04:21.664Z,16.1
2019-05-25T05:06:31.686Z,16.0
2019-05-25T05:07:31.758Z,16.0
2019-05-25T05:08:21.802Z,16.0
2019-05-25T05:11:31.912Z,16.0
2019-05-25T05:16:31.998Z,16.0
2019-05-25T05:21:32.101Z,16.0
2019-05-25T05:26:32.464Z,16.0
2019-05-25T05:31:32.368Z,16.1
2019-05-25T05:36:32.464Z,16.2
2019-05-25T05:41:32.666Z,16.2
2019-05-25T05:46:32.804Z,16.3
2019-05-25T05:51:42.928Z,16.5
2019-05-25T05:52:32.929Z,16.5
2019-05-25T05:56:43.053Z,16.6
2019-05-25T05:57:33.057Z,16.6
2019-05-25T05:58:33.082Z,16.5
2019-05-25T06:01:43.162Z,16.7
2019-05-25T06:06:33.284Z,16.8
2019-05-25T06:11:33.470Z,16.9
2019-05-25T06:16:43.547Z,16.9
2019-05-25T06:17:33.560Z,16.9
2019-05-25T06:18:33.584Z,16.8
2019-05-25T06:21:44.252Z,16.9
2019-05-25T06:26:43.783Z,16.9
2019-05-25T06:27:33.839Z,16.9
2019-05-25T06:28:33.854Z,16.9
2019-05-25T06:31:43.905Z,16.9
2019-05-25T06:36:43.995Z,17.0
2019-05-25T06:37:34.054Z,16.9
2019-05-25T06:38:34.077Z,16.9
2019-05-25T06:41:44.144Z,17.1
2019-05-25T06:46:44.295Z,16.9
2019-05-25T06:51:44.462Z,17.1
2019-05-25T06:56:44.528Z,17.1
2019-05-25T07:01:34.622Z,17.0
2019-05-25T07:06:04.852Z,17.1
2019-05-25T07:07:04.864Z,17.0
2019-05-25T07:07:34.886Z,17.0
2019-05-25T07:09:14.939Z,17.0
2019-05-25T07:09:44.941Z,16.9
2019-05-25T07:51:26.012Z,17.1
2019-05-25T07:56:46.508Z,17.1
2019-05-25T08:01:46.577Z,17.2
2019-05-25T08:04:16.616Z,17.2
2019-05-25T08:06:16.807Z,17.2
2019-05-25T08:07:06.817Z,17.2
2019-05-25T08:07:46.828Z,17.1
2019-05-25T08:08:46.839Z,17.1
2019-05-25T08:09:46.852Z,17.1
2019-05-25T08:11:06.869Z,17.3
2019-05-25T08:12:06.883Z,17.3
2019-05-25T08:12:58.260Z,17.2
2019-05-25T08:16:16.969Z,17.3
2019-05-25T08:17:06.979Z,17.4
2019-05-25T08:17:46.979Z,17.3
2019-05-25T08:18:47.013Z,17.4
2019-05-25T08:19:47.018Z,17.3
2019-05-25T08:21:07.035Z,17.4
2019-05-25T08:22:07.053Z,17.4
2019-05-25T08:26:17.115Z,17.6
2019-05-25T08:27:07.129Z,17.6
2019-05-25T08:27:47.133Z,17.6
2019-05-25T08:28:47.149Z,17.8
2019-05-25T08:29:37.166Z,17.8
2019-05-25T08:32:37.231Z,17.9
2019-05-25T08:33:37.240Z,18.0
2019-05-25T08:34:38.432Z,18.1
2019-05-25T08:37:37.344Z,18.4
2019-05-25T08:38:37.350Z,18.3
2019-05-25T08:41:47.439Z,18.9
2019-05-25T08:46:47.523Z,19.7
2019-05-25T08:51:47.708Z,20.5
2019-05-25T08:56:47.848Z,21.3
2019-05-25T09:01:47.965Z,21.7
2019-05-25T09:03:17.990Z,21.7
2019-05-25T09:04:18.032Z,21.7
2019-05-25T09:05:18.242Z,21.7
2019-05-25T09:06:38.128Z,21.7
2019-05-25T09:11:48.233Z,22.6
2019-05-25T09:16:48.417Z,22.3
2019-05-25T09:18:18.441Z,22.4
2019-05-25T09:19:18.476Z,22.4
2019-05-25T09:20:18.471Z,22.5
2019-05-25T09:21:38.502Z,22.6
2019-05-25T09:26:48.565Z,22.5
2019-05-25T09:28:18.583Z,22.5
2019-05-25T09:29:08.604Z,22.5
2019-05-25T09:29:48.742Z,22.6
2019-05-25T09:32:48.662Z,22.4
2019-05-25T09:33:48.705Z,22.3
2019-05-25T09:34:48.728Z,22.1
2019-05-25T09:36:08.687Z,22.0
2019-05-25T09:37:08.704Z,21.8
2019-05-25T09:41:19.849Z,21.2
2019-05-25T09:42:18.799Z,21.1
2019-05-25T09:43:18.816Z,21.2
2019-05-25T09:44:08.823Z,21.2
2019-05-25T09:44:48.975Z,21.2
2019-05-25T09:47:39.071Z,21.4
2019-05-25T09:48:39.112Z,21.5
2019-05-25T09:49:39.160Z,21.5
2019-05-25T09:52:49.204Z,21.7
2019-05-25T09:53:39.217Z,21.8
2019-05-25T09:54:39.228Z,22.0
2019-05-25T09:57:41.513Z,22.0
2019-05-25T09:58:39.282Z,22.1
2019-05-25T09:59:39.280Z,22.4
2019-05-25T10:02:49.485Z,22.6
2019-05-25T10:03:39.352Z,22.7
2019-05-25T10:04:39.431Z,22.8
2019-05-25T10:07:39.532Z,23.1
2019-05-25T10:08:39.543Z,23.2
2019-05-25T10:09:40.258Z,23.4
2019-05-25T10:12:49.639Z,23.7
2019-05-25T10:13:39.637Z,23.7
2019-05-25T10:14:39.638Z,23.8
2019-05-25T10:17:39.680Z,24.0
2019-05-25T10:18:39.688Z,24.1
2019-05-25T10:19:39.694Z,24.1
2019-05-25T10:22:49.775Z,24.2
2019-05-25T10:23:39.778Z,24.2
2019-05-25T10:24:39.790Z,24.3
2019-05-25T10:27:39.821Z,24.6
2019-05-25T10:28:39.881Z,24.7
2019-05-25T10:30:39.876Z,24.9
2019-05-25T10:31:39.916Z,25.1
2019-05-25T10:32:19.990Z,25.0
2019-05-25T10:33:10.010Z,25.1
2019-05-25T10:33:50.011Z,25.2
2019-05-25T10:34:50.010Z,25.2
2019-05-25T10:36:10.206Z,25.4
2019-05-25T10:37:10.134Z,25.6
2019-05-25T10:37:50.136Z,25.7
2019-05-25T10:38:40.150Z,25.9
2019-05-25T10:40:50.216Z,26.0
2019-05-25T10:41:50.252Z,26.0
2019-05-25T10:45:50.285Z,25.5
2019-05-25T10:46:40.308Z,25.4
2019-05-25T10:47:21.179Z,25.5
2019-05-25T10:48:20.361Z,25.6
2019-05-25T10:49:20.462Z,25.5
2019-05-25T10:50:40.409Z,25.6
2019-05-25T10:51:40.413Z,25.4
2019-05-25T10:52:20.465Z,25.6
2019-05-25T10:53:10.521Z,25.5
2019-05-25T10:53:50.579Z,25.6
2019-05-25T10:54:50.599Z,25.7
2019-05-25T10:56:10.627Z,25.8
2019-05-25T10:57:13.187Z,25.9
2019-05-25T10:57:50.754Z,26.0
2019-05-25T10:58:50.682Z,26.1
2019-05-25T10:59:52.240Z,26.1
2019-05-25T11:00:50.701Z,26.2
2019-05-25T11:01:50.718Z,26.2
2019-05-25T11:05:50.919Z,26.0
2019-05-25T11:06:40.927Z,25.9
2019-05-25T11:07:21.034Z,26.0
2019-05-25T11:08:21.116Z,26.0
2019-05-25T11:09:22.398Z,26.0
2019-05-25T11:10:41.169Z,26.2
2019-05-25T11:11:41.177Z,26.4
2019-05-25T11:12:21.229Z,26.5
2019-05-25T11:13:11.217Z,26.6
2019-05-25T11:13:51.247Z,26.7
2019-05-25T11:14:51.242Z,27.0
2019-05-25T11:16:11.263Z,27.3
2019-05-25T11:17:11.286Z,27.0
2019-05-25T11:17:51.292Z,26.9
2019-05-25T11:18:41.300Z,26.9
2019-05-25T11:19:31.345Z,27.0
2019-05-25T11:20:51.364Z,27.0
2019-05-25T11:21:51.371Z,27.2
2019-05-25T11:22:31.427Z,27.4
2019-05-25T11:23:31.442Z,27.5
2019-05-25T11:24:31.450Z,27.4
2019-05-25T11:25:51.458Z,27.4
2019-05-25T11:26:41.482Z,27.1
2019-05-25T11:27:21.545Z,26.9
2019-05-25T11:28:21.495Z,26.8
2019-05-25T11:29:21.606Z,26.9
2019-05-25T11:30:42.028Z,27.0
2019-05-25T11:31:41.585Z,27.0
2019-05-25T11:32:21.608Z,27.1
2019-05-25T11:33:11.615Z,26.8
2019-05-25T11:33:51.646Z,26.7
2019-05-25T11:34:51.678Z,26.5
2019-05-25T11:36:11.655Z,26.5
2019-05-25T11:37:14.841Z,26.4
2019-05-25T11:37:51.701Z,26.4
2019-05-25T11:38:41.704Z,26.5
2019-05-25T11:39:31.694Z,26.5
2019-05-25T11:40:51.716Z,26.5
2019-05-25T11:41:51.713Z,26.4
2019-05-25T11:42:31.737Z,26.2
2019-05-25T11:43:31.749Z,26.1
2019-05-25T11:45:51.800Z,26.3
2019-05-25T11:46:41.964Z,26.2
2019-05-25T11:47:21.833Z,26.2
2019-05-25T11:48:21.840Z,26.2
2019-05-25T11:49:22.686Z,26.2
2019-05-25T11:50:41.925Z,26.2
2019-05-25T11:51:21.951Z,26.3
2019-05-25T11:52:12.099Z,26.3
2019-05-25T11:52:52.089Z,26.4
2019-05-25T11:53:42.019Z,26.4
2019-05-25T11:54:42.036Z,26.3
2019-05-25T11:56:42.051Z,26.5
2019-05-25T12:00:52.099Z,26.2
2019-05-25T12:01:22.110Z,26.2
2019-05-25T12:02:12.121Z,26.2
2019-05-25T12:02:52.184Z,26.2
2019-05-25T12:03:42.160Z,26.4
2019-05-25T12:04:42.169Z,26.3
2019-05-25T12:06:42.182Z,26.6
2019-05-25T12:10:52.269Z,27.0
2019-05-25T12:11:22.276Z,27.0
2019-05-25T12:12:12.291Z,26.7
2019-05-25T12:12:52.313Z,26.8
2019-05-25T12:13:42.355Z,26.9
2019-05-25T12:14:42.335Z,26.8
2019-05-25T12:16:42.386Z,26.8
2019-05-25T12:20:52.447Z,26.8
2019-05-25T12:21:22.452Z,26.8
2019-05-25T12:22:12.471Z,26.7
2019-05-25T12:22:52.517Z,26.7
2019-05-25T12:23:42.519Z,26.8
2019-05-25T12:24:42.526Z,26.8
2019-05-25T12:26:42.580Z,26.7
2019-05-25T12:27:42.565Z,26.8
2019-05-25T12:28:42.573Z,27.0
2019-05-25T12:29:42.580Z,27.0
2019-05-25T12:31:42.610Z,27.0
2019-05-25T12:32:42.627Z,26.8
2019-05-25T12:33:42.640Z,26.4
2019-05-25T12:35:52.678Z,26.4
2019-05-25T12:36:22.679Z,26.4
2019-05-25T12:37:13.360Z,26.4
2019-05-25T12:37:52.701Z,26.1
2019-05-25T12:38:42.726Z,26.0
2019-05-25T12:39:42.734Z,26.2
2019-05-25T12:41:42.777Z,26.1
2019-05-25T12:45:52.903Z,26.8
2019-05-25T12:46:22.915Z,26.9
2019-05-25T12:47:13.071Z,27.0
2019-05-25T12:47:53.062Z,27.2
2019-05-25T12:48:42.942Z,27.5
2019-05-25T12:49:50.407Z,27.3
2019-05-25T12:51:42.981Z,27.2
2019-05-25T12:55:53.041Z,27.4
2019-05-25T12:56:23.064Z,27.3
2019-05-25T12:57:13.117Z,27.2
2019-05-25T12:57:53.089Z,27.3
2019-05-25T12:58:43.612Z,27.3
2019-05-25T12:59:43.118Z,27.3
2019-05-25T13:00:55.129Z,27.4
2019-05-25T13:01:43.166Z,27.5
2019-05-25T13:02:43.210Z,27.6
2019-05-25T13:03:43.221Z,27.6
2019-05-25T13:04:43.237Z,27.2
2019-05-25T13:05:43.247Z,27.2
2019-05-25T13:06:43.284Z,27.3
2019-05-25T13:07:43.301Z,27.3
2019-05-25T13:08:44.072Z,27.4
2019-05-25T13:09:43.492Z,27.3
2019-05-25T13:10:43.372Z,27.3
2019-05-25T13:11:43.374Z,27.3
2019-05-25T13:12:43.387Z,26.6
2019-05-25T13:13:43.395Z,26.4
2019-05-25T13:14:43.407Z,26.3
2019-05-25T13:16:43.438Z,25.9
2019-05-25T13:17:43.454Z,25.9
2019-05-25T13:18:43.478Z,25.9
2019-05-25T13:19:43.487Z,25.9
2019-05-25T13:21:04.493Z,25.9
2019-05-25T13:21:43.500Z,25.9
2019-05-25T13:22:43.538Z,26.0
2019-05-25T13:23:43.549Z,26.0
2019-05-25T13:24:43.570Z,26.0
2019-05-25T13:25:43.709Z,26.2
2019-05-25T13:26:43.652Z,25.9
2019-05-25T13:27:43.658Z,25.9
2019-05-25T13:28:43.679Z,25.7
2019-05-25T13:29:43.733Z,25.6
2019-05-25T13:30:43.847Z,25.6
2019-05-25T13:31:43.936Z,25.7
2019-05-25T13:32:43.810Z,25.7
2019-05-25T13:33:43.839Z,25.7
2019-05-25T13:35:53.926Z,25.7
2019-05-25T13:36:23.909Z,25.8
2019-05-25T13:37:13.935Z,25.7
2019-05-25T13:37:53.959Z,25.7
2019-05-25T13:38:53.967Z,25.7
2019-05-25T13:39:54.054Z,25.6
2019-05-25T13:41:14.103Z,25.3
2019-05-25T13:41:54.108Z,25.3
2019-05-25T13:42:54.254Z,25.3
2019-05-25T13:43:54.136Z,25.2
2019-05-25T13:44:54.137Z,25.3
2019-05-25T13:46:14.163Z,25.4
2019-05-25T13:46:54.163Z,25.5
2019-05-25T13:47:54.196Z,25.3
2019-05-25T13:48:54.192Z,25.5
2019-05-25T13:49:54.224Z,25.4
2019-05-25T13:50:54.224Z,25.4
2019-05-25T13:51:54.285Z,25.4
2019-05-25T13:52:54.256Z,25.4
2019-05-25T13:53:54.383Z,25.3
2019-05-25T13:54:54.283Z,25.4
2019-05-25T13:56:14.359Z,25.2
2019-05-25T13:56:54.313Z,25.2
2019-05-25T13:57:54.370Z,25.2
2019-05-25T13:58:54.360Z,25.1
2019-05-25T13:59:54.393Z,24.9
2019-05-25T14:01:27.379Z,25.0
2019-05-25T14:01:54.428Z,24.8
2019-05-25T14:02:54.449Z,24.9
2019-05-25T14:03:55.802Z,24.9
2019-05-25T14:04:54.789Z,24.9
2019-05-25T14:05:54.526Z,25.1
2019-05-25T14:06:54.552Z,24.9
2019-05-25T14:07:54.545Z,25.1
2019-05-25T14:08:54.580Z,25.1
2019-05-25T14:09:54.591Z,25.0
2019-05-25T14:10:54.639Z,24.9
2019-05-25T14:11:54.640Z,24.9
2019-05-25T14:12:54.660Z,24.7
2019-05-25T14:13:54.676Z,24.7
2019-05-25T14:14:54.685Z,24.7
2019-05-25T14:16:14.716Z,24.7
2019-05-25T14:16:54.765Z,24.4
2019-05-25T14:17:54.743Z,24.5
2019-05-25T14:18:54.769Z,24.4
2019-05-25T14:19:54.792Z,24.2
2019-05-25T14:21:14.850Z,24.1
2019-05-25T14:21:54.866Z,23.9
2019-05-25T14:22:54.837Z,23.9
2019-05-25T14:23:54.857Z,23.7
2019-05-25T14:24:54.876Z,23.5
2019-05-25T14:26:14.891Z,23.6
2019-05-25T14:26:54.937Z,23.6
2019-05-25T14:27:56.076Z,23.6
2019-05-25T14:28:54.983Z,23.6
2019-05-25T14:29:55.002Z,23.5
2019-05-25T14:31:15.009Z,23.5
2019-05-25T14:31:55.024Z,23.6
2019-05-25T14:32:55.044Z,23.6
2019-05-25T14:33:55.099Z,23.5
2019-05-25T14:34:55.132Z,23.5
2019-05-25T14:36:15.136Z,23.6
2019-05-25T14:36:55.140Z,23.5
2019-05-25T14:37:45.149Z,23.6
2019-05-25T14:38:45.181Z,23.7
2019-05-25T14:39:45.211Z,23.6
2019-05-25T14:45:55.364Z,23.3
2019-05-25T14:46:28.053Z,23.3
2019-05-25T14:47:25.471Z,23.3
2019-05-25T14:48:25.461Z,23.2
2019-05-25T14:49:25.515Z,23.0
2019-05-25T14:50:45.494Z,22.9
2019-05-25T14:51:25.491Z,22.9
2019-05-25T14:52:16.417Z,22.7
2019-05-25T14:52:55.515Z,22.7
2019-05-25T14:53:55.575Z,22.6
2019-05-25T14:54:55.590Z,22.6
2019-05-25T14:56:15.609Z,22.4
2019-05-25T14:56:55.678Z,22.5
2019-05-25T14:57:45.677Z,22.4
2019-05-25T14:58:45.824Z,22.3
2019-05-25T14:59:45.688Z,22.4
2019-05-25T15:05:55.847Z,22.3
2019-05-25T15:06:25.917Z,22.2
2019-05-25T15:07:25.927Z,22.0
2019-05-25T15:08:25.994Z,21.9
2019-05-25T15:09:25.964Z,21.8
2019-05-25T15:10:45.992Z,21.8
2019-05-25T15:11:25.994Z,21.8
2019-05-25T15:12:15.998Z,21.7
2019-05-25T15:12:56.020Z,21.7
2019-05-25T15:13:56.027Z,21.6
2019-05-25T15:14:56.035Z,21.6
2019-05-25T15:16:16.067Z,21.5
2019-05-25T15:16:46.351Z,21.5
2019-05-25T15:17:46.110Z,21.4
2019-05-25T15:18:46.161Z,21.4
2019-05-25T15:19:46.143Z,21.4
2019-05-25T15:21:46.309Z,21.1
2019-05-25T15:22:46.939Z,21.1
2019-05-25T15:23:46.274Z,20.9
2019-05-25T15:24:46.331Z,21.1
2019-05-25T15:26:46.351Z,21.1
2019-05-25T15:27:46.366Z,20.9
2019-05-25T15:28:46.431Z,21.0
2019-05-25T15:29:46.382Z,21.1
2019-05-25T15:31:46.417Z,21.0
2019-05-25T15:32:46.439Z,21.0
2019-05-25T15:33:46.470Z,21.1
2019-05-25T15:34:46.668Z,21.1
2019-05-25T15:36:06.628Z,21.0
2019-05-25T15:36:46.494Z,21.0
2019-05-25T15:37:46.569Z,21.0
2019-05-25T15:38:46.580Z,20.9
2019-05-25T15:39:46.609Z,20.9
2019-05-25T15:41:46.721Z,20.9
2019-05-25T15:42:46.730Z,20.8
2019-05-25T15:43:46.743Z,20.9
2019-05-25T15:44:46.749Z,20.9
2019-05-25T15:46:46.774Z,20.9
2019-05-25T15:47:46.781Z,20.9
2019-05-25T15:48:46.808Z,20.9
2019-05-25T15:49:46.818Z,20.9
2019-05-25T15:51:46.857Z,20.9
2019-05-25T15:52:46.873Z,20.9
2019-05-25T15:53:46.890Z,21.0
2019-05-25T15:54:46.905Z,21.0
2019-05-25T15:56:46.929Z,21.0
2019-05-25T15:57:46.946Z,20.9
2019-05-25T15:58:46.954Z,20.9
2019-05-25T15:59:46.972Z,20.9
2019-05-25T16:01:47.015Z,20.9
2019-05-25T16:02:47.029Z,21.0
2019-05-25T16:03:47.053Z,21.0
2019-05-25T16:04:47.100Z,21.0
2019-05-25T16:06:47.175Z,21.1
2019-05-25T16:07:47.210Z,21.1
2019-05-25T16:08:47.257Z,21.2
2019-05-25T16:09:47.432Z,21.3
2019-05-25T16:11:47.329Z,21.2
2019-05-25T16:12:47.443Z,21.3
2019-05-25T16:13:47.466Z,21.4
2019-05-25T16:14:47.551Z,21.3
2019-05-25T16:16:47.567Z,21.2
2019-05-25T16:17:47.615Z,21.3
2019-05-25T16:18:47.679Z,21.2
2019-05-25T16:19:47.699Z,21.2
2019-05-25T16:20:57.679Z,21.2
2019-05-25T16:25:47.926Z,21.2
2019-05-25T16:30:48.005Z,20.9
2019-05-25T16:35:48.142Z,20.8
2019-05-25T16:39:39.279Z,20.8
2019-05-25T16:40:48.218Z,20.7
2019-05-25T16:45:48.289Z,20.7
2019-05-25T16:50:49.996Z,20.7
2019-05-25T16:55:48.488Z,20.5
2019-05-25T17:00:48.579Z,20.5
2019-05-25T17:05:48.644Z,20.6
2019-05-25T17:10:48.706Z,20.6
2019-05-25T17:15:48.808Z,20.6
2019-05-25T17:20:48.910Z,20.5
2019-05-25T17:25:49.024Z,20.5
2019-05-25T17:30:49.099Z,20.5
2019-05-25T17:35:49.166Z,20.4
2019-05-25T17:40:49.304Z,20.4
2019-05-25T17:45:50.378Z,20.2
2019-05-25T17:50:49.422Z,19.8
2019-05-25T17:55:59.519Z,19.5
2019-05-25T18:00:59.666Z,19.3
2019-05-25T18:05:59.773Z,18.9
2019-05-25T18:10:59.855Z,18.6
2019-05-25T18:12:29.889Z,18.6
2019-05-25T18:13:29.934Z,18.5
2019-05-25T18:14:29.952Z,18.5
2019-05-25T18:15:50.026Z,18.4
2019-05-25T18:16:30.038Z,18.5
2019-05-25T18:17:20.041Z,18.5
2019-05-25T18:19:20.132Z,18.4
2019-05-25T18:21:30.124Z,18.4
2019-05-25T18:22:30.143Z,18.5
2019-05-25T18:23:30.190Z,18.4
2019-05-25T18:24:30.158Z,18.4
2019-05-25T18:25:50.180Z,18.4
2019-05-25T18:26:30.190Z,18.5
2019-05-25T18:27:30.212Z,18.4
2019-05-25T18:28:30.230Z,18.3
2019-05-25T18:29:30.214Z,18.4
2019-05-25T18:30:50.230Z,18.5
2019-05-25T18:35:50.454Z,18.4
2019-05-25T18:36:30.433Z,18.4
2019-05-25T18:38:40.607Z,18.3
2019-05-25T18:41:00.528Z,18.2
2019-05-25T18:41:40.548Z,18.3
2019-05-25T18:42:30.733Z,18.2
2019-05-25T18:43:30.595Z,18.2
2019-05-25T18:44:30.595Z,18.2
2019-05-25T18:46:20.632Z,18.2
2019-05-25T18:47:20.653Z,18.2
2019-05-25T18:48:20.656Z,18.1
2019-05-25T18:49:20.665Z,18.1
2019-05-25T18:50:40.806Z,18.0
2019-05-25T18:52:20.704Z,18.0
2019-05-25T18:53:20.714Z,18.0
2019-05-25T18:54:20.767Z,17.9
2019-05-25T18:55:20.765Z,18.0
2019-05-25T18:56:20.768Z,17.9
2019-05-25T18:57:40.846Z,17.9
2019-05-25T18:58:20.794Z,17.9
2019-05-25T18:59:20.858Z,17.9
2019-05-25T19:00:20.878Z,17.8
2019-05-25T19:01:20.901Z,17.8
2019-05-25T19:03:20.908Z,17.8
2019-05-25T19:04:20.910Z,17.7
2019-05-25T19:05:20.936Z,17.7
2019-05-25T19:06:20.956Z,17.7
2019-05-25T19:07:41.015Z,17.6
2019-05-25T19:08:21.014Z,17.7
2019-05-25T19:09:21.036Z,17.7
2019-05-25T19:10:21.073Z,17.7
2019-05-25T19:11:21.130Z,17.7
2019-05-25T19:12:41.263Z,17.7
2019-05-25T19:16:21.240Z,17.6
2019-05-25T19:17:31.279Z,17.6
2019-05-25T19:18:31.268Z,17.4
2019-05-25T19:19:31.273Z,17.4
2019-05-25T19:20:31.329Z,17.5
2019-05-25T19:21:31.334Z,17.6
2019-05-25T19:22:31.360Z,17.5
2019-05-25T19:23:21.366Z,17.5
2019-05-25T19:24:21.382Z,17.5
2019-05-25T19:25:21.455Z,17.5
2019-05-25T19:26:21.445Z,17.5
2019-05-25T19:27:31.494Z,17.5
2019-05-25T19:28:21.504Z,17.5
2019-05-25T19:29:21.551Z,17.4
2019-05-25T19:30:21.668Z,17.4
2019-05-25T19:31:21.633Z,17.3
2019-05-25T19:32:31.652Z,17.4
2019-05-25T19:33:21.741Z,17.4
2019-05-25T19:34:21.776Z,17.3
2019-05-25T19:35:21.815Z,17.3
2019-05-25T19:36:21.810Z,17.3
2019-05-25T19:37:31.890Z,17.3
2019-05-25T19:38:21.947Z,17.3
2019-05-25T19:39:21.960Z,17.3
2019-05-25T19:40:21.974Z,17.2
2019-05-25T19:41:21.982Z,17.2
2019-05-25T19:42:32.002Z,17.3
2019-05-25T19:43:22.011Z,17.1
2019-05-25T19:44:22.177Z,17.2
2019-05-25T19:45:22.041Z,17.1
2019-05-25T19:46:22.059Z,17.1
2019-05-25T19:47:32.059Z,17.2
2019-05-25T19:48:22.079Z,17.1
2019-05-25T19:49:22.137Z,17.1
2019-05-25T19:50:22.186Z,17.2
2019-05-25T19:51:22.185Z,17.1
2019-05-25T19:52:32.298Z,17.2
2019-05-25T19:53:22.237Z,17.1
2019-05-25T19:54:22.305Z,17.2
2019-05-25T19:55:22.301Z,17.2
2019-05-25T19:56:22.337Z,17.1
2019-05-25T19:57:32.398Z,17.1
2019-05-25T19:58:22.484Z,17.2
2019-05-25T19:59:22.425Z,17.2
2019-05-25T20:00:22.440Z,17.1
2019-05-25T20:01:22.459Z,17.1
2019-05-25T20:02:32.475Z,17.2
2019-05-25T20:03:22.492Z,17.1
2019-05-25T20:04:22.508Z,17.2
2019-05-25T20:05:22.513Z,17.1
2019-05-25T20:06:22.576Z,17.2
2019-05-25T20:07:33.750Z,17.1
2019-05-25T20:08:22.606Z,17.1
2019-05-25T20:09:22.673Z,17.1
2019-05-25T20:10:22.721Z,17.1
2019-05-25T20:11:22.750Z,17.0
2019-05-25T20:12:32.757Z,17.0
2019-05-25T20:13:22.788Z,17.0
2019-05-25T20:14:22.792Z,17.0
2019-05-25T20:15:22.805Z,17.0
2019-05-25T20:16:25.002Z,17.1
2019-05-25T20:17:32.875Z,17.0
2019-05-25T20:18:24.020Z,16.9
2019-05-25T20:19:22.909Z,17.0
2019-05-25T20:20:22.919Z,16.9
2019-05-25T20:21:22.930Z,16.9
2019-05-25T20:22:32.955Z,16.9
2019-05-25T20:23:22.964Z,16.9
2019-05-25T20:24:22.979Z,16.8
2019-05-25T20:25:23.006Z,16.9
2019-05-25T20:26:23.033Z,17.0
2019-05-25T20:27:33.065Z,16.9
2019-05-25T20:28:23.087Z,16.9
2019-05-25T20:29:25.063Z,16.8
2019-05-25T20:30:23.107Z,16.9
2019-05-25T20:31:23.137Z,16.8
2019-05-25T20:32:33.182Z,16.8
2019-05-25T20:33:27.312Z,16.9
2019-05-25T20:34:23.234Z,16.9
2019-05-25T20:35:32.209Z,16.7
2019-05-25T20:36:23.300Z,16.9
2019-05-25T20:37:33.364Z,16.7
2019-05-25T20:38:23.379Z,16.8
2019-05-25T20:39:23.396Z,16.8
2019-05-25T20:40:24.557Z,16.8
2019-05-25T20:41:23.425Z,16.7
2019-05-25T20:42:33.428Z,16.7
2019-05-25T20:43:23.438Z,16.7
2019-05-25T20:44:23.678Z,16.7
2019-05-25T20:45:23.468Z,16.7
2019-05-25T20:46:33.545Z,16.7
2019-05-25T20:47:33.670Z,16.6
2019-05-25T20:48:23.674Z,16.6
2019-05-25T20:49:23.657Z,16.6